Flight Track Log - Related Links

Times and Time Zones

All times are in EDT time to prevent confusion due to time zone crossing. See the N795HG flight status page for this flight to view local times or setup timezone preferences in your user account.

Time Position Orientation Groundspeed Altitude Reporting Facility
EDT Latitude Longitude Course Direction KTS MPH feet Rate Location/Type
Fri 05:01:00 AM 42.3992 -70.9637 16° North  Level FlightAware Approximate
Fri 05:04:29 AM 41.7414 -71.4133 16° North 484 557 1,100  Level Boston Center
Fri 05:05:29 AM 41.7847 -71.3822 28° Northeast 290 334 3,400 2,250 Climbing Boston Center
Fri 05:06:29 AM 41.8383 -71.3200 41° Northeast 230 265 5,600 2,050 Climbing Boston Center
Fri 05:07:29 AM 41.8856 -71.2522 47° Northeast 251 289 7,500 2,200 Climbing Boston Center
Fri 05:08:29 AM 41.9472 -71.1672 46° Northeast 272 313 10,000 2,550 Climbing Boston Center
Fri 05:09:29 AM 42.0006 -71.0936 46° Northeast 289 333 12,600 2,650 Climbing Boston Center
Fri 05:10:29 AM 42.0642 -71.0083 45° Northeast 289 333 15,300 2,350 Climbing Boston Center
Fri 05:11:29 AM 42.1172 -70.9314 47° Northeast 306 352 17,300 1,900 Climbing Boston Center
Fri 05:12:29 AM 42.1911 -70.8400 42° Northeast 311 358 19,100 1,650 Climbing Boston Center
Fri 05:13:29 AM 42.2544 -70.7458 48° Northeast 317 365 20,600 1,300 Climbing Boston Center
Fri 05:14:29 AM 42.3236 -70.6456 47° Northeast 338 389 21,700 1,050 Climbing Boston Center
Fri 05:15:29 AM 42.4011 -70.5339 47° Northeast 367 422 22,700 1,000 Climbing Boston Center
Fri 05:16:29 AM 42.4844 -70.4214 45° Northeast 397 457 23,700 1,100 Climbing Boston Center
Fri 05:17:29 AM 42.5678 -70.3031 46° Northeast 411 473 24,900 1,250 Climbing Boston Center
Fri 05:18:29 AM 42.6531 -70.1817 46° Northeast 426 490 26,200 1,150 Climbing Boston Center
Fri 05:19:29 AM 42.7381 -70.0597 46° Northeast 438 504 27,200 1,050 Climbing Boston Center
Fri 05:20:29 AM 42.8292 -69.9289 46° Northeast 450 518 28,300 1,000 Climbing Boston Center
Fri 05:21:29 AM 42.9139 -69.8064 47° Northeast 474 545 29,200 1,000 Climbing Boston Center
Fri 05:22:29 AM 43.0067 -69.6744 46° Northeast 474 545 30,300 1,100 Climbing Boston Center
Fri 05:23:29 AM 43.1011 -69.5367 47° Northeast 486 559 31,400 1,100 Climbing Boston Center
Fri 05:24:29 AM 43.1956 -69.3953 47° Northeast 486 559 32,500 1,050 Climbing Boston Center
Fri 05:25:29 AM 43.2897 -69.2567 47° Northeast 486 559 33,500 950 Climbing Boston Center
Fri 05:26:29 AM 43.3878 -69.1114 47° Northeast 497 572 34,400 950 Climbing Boston Center
Fri 05:27:29 AM 43.4875 -68.9656 47° Northeast 509 586 35,400 1,050 Climbing Boston Center
Fri 05:28:29 AM 43.5872 -68.8194 47° Northeast 515 593 36,500 1,200 Climbing Boston Center
Fri 05:29:29 AM 43.6867 -68.6697 47° Northeast 515 593 37,800 1,150 Climbing Boston Center
Fri 05:30:29 AM 43.7819 -68.5258 47° Northeast 505 581 38,800 992 Climbing Boston Center
Fri 05:31:30 AM 43.8808 -68.3753 48° Northeast 510 587 39,800 950 Climbing Boston Center
Fri 05:32:29 AM 43.9797 -68.2242 48° Northeast 515 593 40,700 605 Climbing Boston Center
Fri 05:33:29 AM 44.0803 -68.0725 47° Northeast 515 593 41,000 150 Climbing Boston Center
Fri 05:34:29 AM 44.1828 -67.9200 47° Northeast 515 593 41,000  Level Boston Center
Fri 05:35:29 AM 44.2828 -67.7586 49° Northeast 526 605 41,000  Level Boston Center
Fri 05:36:29 AM 44.3867 -67.5964 48° Northeast 541 623 41,000  Level Boston Center
Fri 05:36:59 AM 44.4500 -67.4833 52° Northeast 560 644 41,000  Level Moncton Center
Fri 05:37:59 AM 44.5500 -67.3333 47° Northeast 570 656 41,000  Level Moncton Center
Fri 05:38:29 AM 44.6017 -67.2667 43° Northeast 559 643 41,000  Level Boston Center
Fri 05:38:59 AM 44.6333 -67.1667 66° East 570 656 41,000  Level Moncton Center
Fri 05:39:59 AM 44.7667 -66.9833 44° Northeast 570 656 41,000  Level Moncton Center
Fri 05:40:59 AM 44.8500 -66.8333 52° Northeast 570 656 41,000  Level Moncton Center
Fri 05:41:59 AM 44.9667 -66.6667 45° Northeast 570 656 41,000  Level Moncton Center
Fri 05:42:59 AM 45.0667 -66.5000 50° Northeast 570 656 41,000  Level Moncton Center
Fri 05:43:59 AM 45.1667 -66.3167 52° Northeast 570 656 41,000  Level Moncton Center
Fri 05:44:59 AM 45.2833 -66.1500 45° Northeast 570 656 41,000  Level Moncton Center
Fri 05:45:59 AM 45.3833 -66.0000 46° Northeast 570 656 41,000  Level Moncton Center
Fri 05:46:59 AM 45.4833 -65.8000 54° Northeast 570 656 41,000  Level Moncton Center
Fri 05:47:59 AM 45.5833 -65.6333 49° Northeast 570 656 41,000  Level Moncton Center
Fri 05:48:59 AM 45.6833 -65.4500 52° Northeast 570 656 41,000  Level Moncton Center
Fri 05:49:59 AM 45.7833 -65.2833 49° Northeast 570 656 41,000  Level Moncton Center
Fri 05:50:59 AM 45.8833 -65.1167 49° Northeast 570 656 41,000  Level Moncton Center
Fri 05:51:59 AM 45.9833 -64.9500 49° Northeast 570 656 41,000  Level Moncton Center
Fri 05:52:59 AM 46.1000 -64.7667 47° Northeast 580 667 41,000  Level Moncton Center
Fri 05:53:59 AM 46.2000 -64.5833 52° Northeast 570 656 41,000  Level Moncton Center
Fri 05:54:59 AM 46.3000 -64.4167 49° Northeast 570 656 41,000  Level Moncton Center
Fri 05:55:59 AM 46.4000 -64.2500 49° Northeast 570 656 41,000  Level Moncton Center
Fri 05:56:59 AM 46.5000 -64.0500 54° Northeast 570 656 41,000  Level Moncton Center
Fri 05:57:59 AM 46.6000 -63.8833 49° Northeast 570 656 41,000  Level Moncton Center
Fri 05:58:59 AM 46.7167 -63.6833 50° Northeast 570 656 41,000  Level Moncton Center
Fri 05:59:59 AM 46.8000 -63.5167 54° Northeast 570 656 41,000  Level Moncton Center
Fri 06:00:59 AM 46.9000 -63.3167 54° Northeast 570 656 41,000  Level Moncton Center
Fri 06:01:59 AM 47.0000 -63.1500 49° Northeast 570 656 41,000  Level Moncton Center
Fri 06:02:59 AM 47.0833 -62.9667 56° Northeast 570 656 41,000  Level Moncton Center
Fri 06:03:59 AM 47.2000 -62.8000 44° Northeast 570 656 41,000  Level Moncton Center
Fri 06:04:59 AM 47.3000 -62.6167 51° Northeast 570 656 41,000  Level Moncton Center
Fri 06:05:59 AM 47.4000 -62.4167 53° Northeast 570 656 41,000  Level Moncton Center
Fri 06:06:59 AM 47.5000 -62.2333 51° Northeast 570 656 41,000  Level Moncton Center
Fri 06:07:59 AM 47.6000 -62.0333 53° Northeast 580 667 41,000  Level Moncton Center
Fri 06:08:59 AM 47.6833 -61.8667 53° Northeast 570 656 41,000  Level Moncton Center
Fri 06:09:59 AM 47.8000 -61.6500 51° Northeast 580 667 41,000  Level Moncton Center
Fri 06:10:59 AM 47.8833 -61.4833 53° Northeast 570 656 41,000  Level Moncton Center
Fri 06:11:59 AM 47.9833 -61.3000 51° Northeast 580 667 41,000  Level Moncton Center
Fri 06:12:59 AM 48.0833 -61.0833 55° Northeast 570 656 41,000 100 Level Moncton Center
Fri 06:13:59 AM 48.1833 -60.9000 51° Northeast 570 656 41,200 350 Climbing Moncton Center
Fri 06:14:59 AM 48.2833 -60.7167 51° Northeast 570 656 41,700 450 Climbing Moncton Center
Fri 06:15:59 AM 48.3667 -60.5333 56° Northeast 560 644 42,100 450 Climbing Moncton Center
Fri 06:16:59 AM 48.4667 -60.3333 53° Northeast 560 644 42,600 500 Climbing Moncton Center
Fri 06:17:59 AM 48.5500 -60.1500 55° Northeast 550 633 43,100 500 Climbing Moncton Center
Fri 06:18:59 AM 48.6333 -59.9667 55° Northeast 550 633 43,600 500 Climbing Moncton Center
Fri 06:19:59 AM 48.7333 -59.7833 50° Northeast 540 621 44,100 450 Climbing Moncton Center
Fri 06:20:59 AM 48.8000 -59.6167 59° Northeast 540 621 44,500 450 Climbing Moncton Center
Fri 06:21:59 AM 48.9000 -59.4333 50° Northeast 530 610 45,000 250 Climbing Moncton Center
Fri 06:22:59 AM 48.9833 -59.2333 58° Northeast 530 610 45,000  Level Moncton Center
Fri 06:23:59 AM 49.0833 -59.0500 50° Northeast 540 621 45,000  Level Moncton Center
Fri 06:24:59 AM 49.1667 -58.8667 55° Northeast 540 621 45,000  Level Moncton Center
Fri 06:25:59 AM 49.2500 -58.6667 57° Northeast 540 621 45,000  Level Moncton Center
Fri 06:26:59 AM 49.3333 -58.4833 55° Northeast 540 621 45,000  Level Moncton Center
Fri 06:27:59 AM 49.4167 -58.3000 55° Northeast 540 621 45,000  Level Moncton Center
Fri 06:28:59 AM 49.4833 -58.0833 65° Northeast 540 621 45,000  Level Moncton Center
Fri 06:29:59 AM 49.5667 -57.8667 59° Northeast 540 621 45,000  Level Moncton Center
Fri 06:30:59 AM 49.6333 -57.6667 63° Northeast 540 621 45,000  Level Moncton Center
Fri 06:31:59 AM 49.7000 -57.4500 64° Northeast 540 621 45,000  Level Moncton Center
Fri 06:32:59 AM 49.7833 -57.2667 55° Northeast 540 621 45,000  Level Moncton Center
Fri 06:33:59 AM 49.8500 -57.0500 64° Northeast 540 621 45,000  Level Moncton Center
Fri 06:34:59 AM 49.9167 -56.8500 63° Northeast 540 621 45,000  Level Moncton Center
Fri 06:35:59 AM 49.9833 -56.6333 64° Northeast 540 621 45,000  Level Moncton Center
Fri 06:36:59 AM 50.0500 -56.4333 63° Northeast 540 621 45,000  Level Moncton Center
Fri 06:37:59 AM 50.1333 -56.2167 59° Northeast 550 633 45,000  Level Moncton Center
Fri 06:38:59 AM 50.2000 -56.0167 62° Northeast 540 621 45,000  Level Moncton Center
Fri 06:39:59 AM 50.2667 -55.8000 64° Northeast 550 633 45,000  Level Moncton Center
Fri 06:40:59 AM 50.3333 -55.6000 62° Northeast 540 621 45,000  Level Moncton Center
Fri 06:41:59 AM 50.4000 -55.3833 64° Northeast 550 633 45,000  Level Moncton Center
Fri 06:42:59 AM 50.4833 -55.1500 61° Northeast 550 633 45,000  Level Moncton Center
Fri 06:43:59 AM 50.5333 -54.9500 68° East 550 633 45,000  Level Moncton Center
Fri 06:44:59 AM 50.6167 -54.7167 61° Northeast 550 633 45,000  Level Moncton Center
Fri 06:45:59 AM 50.6833 -54.5167 62° Northeast 550 633 45,000  Level Moncton Center
Fri 06:46:59 AM 50.7500 -54.3000 64° Northeast 550 633 45,000  Level Moncton Center
Fri 06:47:59 AM 50.8167 -54.1000 62° Northeast 550 633 45,000  Level Moncton Center
Fri 06:48:59 AM 50.8833 -53.8667 66° East 540 621 45,000  Level Moncton Center
Fri 06:49:59 AM 50.9500 -53.6333 66° East 550 633 45,000  Level Moncton Center
Fri 06:50:59 AM 51.0167 -53.4333 62° Northeast 550 633 45,000  Level Moncton Center
Fri 06:51:59 AM 51.0667 -53.2167 70° East 540 621 45,000  Level Moncton Center
Fri 06:52:59 AM 51.1333 -53.0000 64° Northeast 550 633 45,000  Level Moncton Center
Fri 06:53:59 AM 51.2000 -52.7833 64° Northeast 560 644 45,000  Level Moncton Center
Fri 06:54:59 AM 51.2667 -52.5667 64° Northeast 540 621 45,000  Level Moncton Center
Fri 06:55:59 AM 51.3333 -52.3667 62° Northeast 540 621 45,000  Level Moncton Center
Fri 06:56:59 AM 51.3833 -52.1000 73° East 550 633 45,000  Level Moncton Center
Fri 06:57:59 AM 51.4500 -51.9000 62° Northeast 540 621 45,000  Level Moncton Center
Fri 06:58:59 AM 51.5167 -51.7000 62° Northeast 540 621 45,000  Level Moncton Center
Fri 06:59:59 AM 51.5667 -51.4667 71° East 550 633 45,000  Level Moncton Center
Fri 07:00:59 AM 51.6500 -51.2167 62° Northeast 540 621 45,000  Level Moncton Center
Fri 07:01:59 AM 51.7000 -51.0500 64° Northeast 550 633 45,000  Level Moncton Center
Fri 07:03:27 AM 51.7833 -50.6833 70° East 550 633 45,000  Level Gander Center
Fri 07:04:27 AM 51.8500 -50.4833 62° Northeast 530 610 45,000  Level Gander Center
Fri 07:05:27 AM 51.9167 -50.2500 65° Northeast 530 610 45,000  Level Gander Center
Fri 07:06:27 AM 51.9833 -50.0333 63° Northeast 520 598 45,000  Level Gander Center
Fri 07:07:00 AM 52.0000 -50.0000 59° Northeast 532 612 45,000  Level ETMS Enhanced Traffic Management System
Fri 07:14:00 AM 52.5199 -48.5378 60° Northeast 532 612 45,000  Level FlightAware Transoceanic
Fri 07:15:00 AM 52.5927 -48.3261 61° Northeast 532 612 45,000  Level FlightAware Transoceanic
Fri 07:16:00 AM 52.6651 -48.1137 61° Northeast 532 612 45,000  Level FlightAware Transoceanic
Fri 07:17:00 AM 52.7371 -47.9006 61° Northeast 532 612 45,000  Level FlightAware Transoceanic
Fri 07:18:00 AM 52.8087 -47.6868 61° Northeast 532 612 45,000  Level FlightAware Transoceanic
Fri 07:19:00 AM 52.8800 -47.4723 61° Northeast 532 612 45,000  Level FlightAware Transoceanic
Fri 07:20:00 AM 52.9508 -47.2570 61° Northeast 532 612 45,000  Level FlightAware Transoceanic
Fri 07:21:00 AM 53.0213 -47.0411 62° Northeast 532 612 45,000  Level FlightAware Transoceanic
Fri 07:22:00 AM 53.0914 -46.8245 62° Northeast 532 612 45,000  Level FlightAware Transoceanic
Fri 07:23:00 AM 53.1611 -46.6072 62° Northeast 532 612 45,000  Level FlightAware Transoceanic
Fri 07:24:00 AM 53.2304 -46.3891 62° Northeast 532 612 45,000  Level FlightAware Transoceanic
Fri 07:25:00 AM 53.2993 -46.1704 62° Northeast 532 612 45,000  Level FlightAware Transoceanic
Fri 07:26:00 AM 53.3677 -45.9510 62° Northeast 532 612 45,000  Level FlightAware Transoceanic
Fri 07:27:00 AM 53.4358 -45.7308 63° Northeast 532 612 45,000  Level FlightAware Transoceanic
Fri 07:28:00 AM 53.5035 -45.5100 63° Northeast 532 612 45,000  Level FlightAware Transoceanic
Fri 07:29:00 AM 53.5708 -45.2884 63° Northeast 532 612 45,000  Level FlightAware Transoceanic
Fri 07:30:00 AM 53.6376 -45.0662 63° Northeast 532 612 45,000  Level FlightAware Transoceanic
Fri 07:31:00 AM 53.7041 -44.8432 63° Northeast 532 612 45,000  Level FlightAware Transoceanic
Fri 07:32:00 AM 53.7701 -44.6195 64° Northeast 532 612 45,000  Level FlightAware Transoceanic
Fri 07:33:00 AM 53.8357 -44.3952 64° Northeast 532 612 45,000  Level FlightAware Transoceanic
Fri 07:34:00 AM 53.9009 -44.1701 64° Northeast 532 612 45,000  Level FlightAware Transoceanic
Fri 07:35:00 AM 53.9657 -43.9444 64° Northeast 532 612 45,000  Level FlightAware Transoceanic
Fri 07:36:00 AM 54.0300 -43.7179 64° Northeast 532 612 45,000  Level FlightAware Transoceanic
Fri 07:37:00 AM 54.0940 -43.4907 64° Northeast 532 612 45,000  Level FlightAware Transoceanic
Fri 07:38:00 AM 54.1575 -43.2628 65° Northeast 532 612 45,000  Level FlightAware Transoceanic
Fri 07:39:00 AM 54.2205 -43.0343 65° Northeast 532 612 45,000  Level FlightAware Transoceanic
Fri 07:40:00 AM 54.2831 -42.8050 65° Northeast 532 612 45,000  Level FlightAware Transoceanic
Fri 07:41:00 AM 54.3453 -42.5751 65° Northeast 532 612 45,000  Level FlightAware Transoceanic
Fri 07:42:00 AM 54.4071 -42.3444 65° Northeast 532 612 45,000  Level FlightAware Transoceanic
Fri 07:43:00 AM 54.4684 -42.1131 66° East 532 612 45,000  Level FlightAware Transoceanic
Fri 07:44:00 AM 54.5293 -41.8810 66° East 532 612 45,000  Level FlightAware Transoceanic
Fri 07:45:00 AM 54.5897 -41.6483 66° East 532 612 45,000  Level FlightAware Transoceanic
Fri 07:46:00 AM 54.6497 -41.4149 66° East 532 612 45,000  Level FlightAware Transoceanic
Fri 07:47:00 AM 54.7092 -41.1808 66° East 532 612 45,000  Level FlightAware Transoceanic
Fri 07:48:00 AM 54.7683 -40.9460 67° East 532 612 45,000  Level FlightAware Transoceanic
Fri 07:49:00 AM 54.8269 -40.7105 67° East 532 612 45,000  Level FlightAware Transoceanic
Fri 07:50:00 AM 54.8851 -40.4743 67° East 532 612 45,000  Level FlightAware Transoceanic
Fri 07:51:00 AM 54.9428 -40.2375 67° East 532 612 45,000  Level FlightAware Transoceanic
Fri 07:52:00 AM 54.9960 -40.0168 67° East  Level FlightAware Approximate
Fri 07:53:00 AM 55.0487 -39.7955 67° East  Level FlightAware Approximate
Fri 07:54:00 AM 55.0282 -39.8029 76° East  Level FlightAware Approximate
Fri 07:55:00 AM 55.0611 -39.5701 76° East  Level FlightAware Approximate
Fri 07:56:00 AM 55.0936 -39.3369 76° East  Level FlightAware Approximate
Fri 07:57:00 AM 55.1256 -39.1033 76° East  Level FlightAware Approximate
Fri 07:58:00 AM 55.1572 -38.8693 77° East  Level FlightAware Approximate
Fri 07:59:00 AM 55.1883 -38.6350 77° East  Level FlightAware Approximate
Fri 08:00:00 AM 55.2189 -38.4003 77° East  Level FlightAware Approximate
Fri 08:00:00 AM 55.0000 -40.0000 76° East 492 566 45,000  Level ETMS Enhanced Traffic Management System
Fri 08:01:00 AM 55.2491 -38.1653 77° East  Level FlightAware Approximate
Fri 08:02:00 AM 55.2789 -37.9299 77° East  Level FlightAware Approximate
Fri 08:03:00 AM 55.3082 -37.6941 78° East  Level FlightAware Approximate
Fri 08:04:00 AM 55.3371 -37.4580 78° East  Level FlightAware Approximate
Fri 08:05:00 AM 55.3655 -37.2215 78° East  Level FlightAware Approximate
Fri 08:06:00 AM 55.3961 -36.9616 78° East 492 566 45,000  Level FlightAware Transoceanic
Fri 08:07:00 AM 55.4234 -36.7255 79° East 492 566 45,000  Level FlightAware Transoceanic
Fri 08:08:00 AM 55.4503 -36.4890 79° East 492 566 45,000  Level FlightAware Transoceanic
Fri 08:09:00 AM 55.4767 -36.2522 79° East 492 566 45,000  Level FlightAware Transoceanic
Fri 08:10:00 AM 55.5027 -36.0151 79° East 492 566 45,000  Level FlightAware Transoceanic
Fri 08:11:00 AM 55.5282 -35.7777 79° East 492 566 45,000  Level FlightAware Transoceanic
Fri 08:12:00 AM 55.5532 -35.5400 80° East 492 566 45,000  Level FlightAware Transoceanic
Fri 08:13:00 AM 55.5778 -35.3020 80° East 492 566 45,000  Level FlightAware Transoceanic
Fri 08:14:00 AM 55.6019 -35.0636 80° East 492 566 45,000  Level FlightAware Transoceanic
Fri 08:15:00 AM 55.6255 -34.8250 80° East 492 566 45,000  Level FlightAware Transoceanic
Fri 08:16:00 AM 55.6487 -34.5862 80° East 492 566 45,000  Level FlightAware Transoceanic
Fri 08:17:00 AM 55.6714 -34.3470 81° East 492 566 45,000  Level FlightAware Transoceanic
Fri 08:18:00 AM 55.6937 -34.1075 81° East 492 566 45,000  Level FlightAware Transoceanic
Fri 08:19:00 AM 55.7155 -33.8678 81° East 492 566 45,000  Level FlightAware Transoceanic
Fri 08:20:00 AM 55.7368 -33.6278 81° East 492 566 45,000  Level FlightAware Transoceanic
Fri 08:21:00 AM 55.7577 -33.3876 81° East 492 566 45,000  Level FlightAware Transoceanic
Fri 08:22:00 AM 55.7780 -33.1471 82° East 492 566 45,000  Level FlightAware Transoceanic
Fri 08:23:00 AM 55.7980 -32.9063 82° East 492 566 45,000  Level FlightAware Transoceanic
Fri 08:24:00 AM 55.8174 -32.6654 82° East 492 566 45,000  Level FlightAware Transoceanic
Fri 08:25:00 AM 55.8364 -32.4241 82° East 492 566 45,000  Level FlightAware Transoceanic
Fri 08:26:00 AM 55.8549 -32.1827 82° East 492 566 45,000  Level FlightAware Transoceanic
Fri 08:27:00 AM 55.8729 -31.9410 83° East 492 566 45,000  Level FlightAware Transoceanic
Fri 08:28:00 AM 55.8905 -31.6991 83° East 492 566 45,000  Level FlightAware Transoceanic
Fri 08:29:00 AM 55.9075 -31.4570 83° East 492 566 45,000  Level FlightAware Transoceanic
Fri 08:30:00 AM 55.9241 -31.2146 83° East 492 566 45,000  Level FlightAware Transoceanic
Fri 08:31:00 AM 55.9403 -30.9721 83° East 492 566 45,000  Level FlightAware Transoceanic
Fri 08:32:00 AM 55.9559 -30.7293 84° East 492 566 45,000  Level FlightAware Transoceanic
Fri 08:33:00 AM 55.9711 -30.4864 84° East 492 566 45,000  Level FlightAware Transoceanic
Fri 08:34:00 AM 55.9858 -30.2433 84° East 492 566 45,000  Level FlightAware Transoceanic
Fri 08:35:00 AM 56.0001 -29.9990 84° East  Level FlightAware Approximate
Fri 08:36:00 AM 56.0001 -29.9979 86° East  Level FlightAware Approximate
Fri 08:36:00 AM 56.0000 -30.0000 86° East 502 578 45,000  Level ETMS Enhanced Traffic Management System
Fri 08:37:00 AM 56.0084 -29.7526 86° East  Level FlightAware Approximate
Fri 08:38:00 AM 56.0162 -29.5073 87° East  Level FlightAware Approximate
Fri 08:39:00 AM 56.0235 -29.2618 87° East  Level FlightAware Approximate
Fri 08:40:00 AM 56.0304 -29.0162 87° East  Level FlightAware Approximate
Fri 08:41:00 AM 56.0368 -28.7706 87° East  Level FlightAware Approximate
Fri 08:42:00 AM 56.0647 -28.0034 88° East 502 578 45,000  Level FlightAware Transoceanic
Fri 08:43:00 AM 56.0705 -27.7534 88° East 502 578 45,000  Level FlightAware Transoceanic
Fri 08:44:00 AM 56.0759 -27.5033 88° East 502 578 45,000  Level FlightAware Transoceanic
Fri 08:45:00 AM 56.0807 -27.2531 88° East 502 578 45,000  Level FlightAware Transoceanic
Fri 08:46:00 AM 56.0850 -27.0029 88° East 502 578 45,000  Level FlightAware Transoceanic
Fri 08:47:00 AM 56.0888 -26.7527 89° East 502 578 45,000  Level FlightAware Transoceanic
Fri 08:48:00 AM 56.0921 -26.5024 89° East 502 578 45,000  Level FlightAware Transoceanic
Fri 08:49:00 AM 56.0949 -26.2521 89° East 502 578 45,000  Level FlightAware Transoceanic
Fri 08:50:00 AM 56.0971 -26.0017 89° East 502 578 45,000  Level FlightAware Transoceanic
Fri 08:51:00 AM 56.0989 -25.7513 89° East 502 578 45,000  Level FlightAware Transoceanic
Fri 08:52:00 AM 56.1002 -25.5009 90° East 502 578 45,000  Level FlightAware Transoceanic
Fri 08:53:00 AM 56.1009 -25.2504 90° East 502 578 45,000  Level FlightAware Transoceanic
Fri 08:54:00 AM 56.1012 -25.0000 90° East 502 578 45,000  Level FlightAware Transoceanic
Fri 08:55:00 AM 56.1009 -24.7496 90° East 502 578 45,000  Level FlightAware Transoceanic
Fri 08:56:00 AM 56.1002 -24.4991 90° East 502 578 45,000  Level FlightAware Transoceanic
Fri 08:57:00 AM 56.0989 -24.2487 91° East 502 578 45,000  Level FlightAware Transoceanic
Fri 08:58:00 AM 56.0971 -23.9983 91° East 502 578 45,000  Level FlightAware Transoceanic
Fri 08:59:00 AM 56.0949 -23.7479 91° East 502 578 45,000  Level FlightAware Transoceanic
Fri 09:00:00 AM 56.0921 -23.4976 91° East 502 578 45,000  Level FlightAware Transoceanic
Fri 09:01:00 AM 56.0888 -23.2473 91° East 502 578 45,000  Level FlightAware Transoceanic
Fri 09:02:00 AM 56.0850 -22.9971 92° East 502 578 45,000  Level FlightAware Transoceanic
Fri 09:03:00 AM 56.0807 -22.7469 92° East 502 578 45,000  Level FlightAware Transoceanic
Fri 09:04:00 AM 56.0759 -22.4967 92° East 502 578 45,000  Level FlightAware Transoceanic
Fri 09:05:00 AM 56.0705 -22.2466 92° East 502 578 45,000  Level FlightAware Transoceanic
Fri 09:06:00 AM 56.0647 -21.9966 92° East 502 578 45,000  Level FlightAware Transoceanic
Fri 09:07:00 AM 56.0584 -21.7467 93° East 502 578 45,000  Level FlightAware Transoceanic
Fri 09:08:00 AM 56.0516 -21.4969 93° East 502 578 45,000  Level FlightAware Transoceanic
Fri 09:09:00 AM 56.0442 -21.2471 93° East 502 578 45,000  Level FlightAware Transoceanic
Fri 09:10:00 AM 56.0364 -20.9975 93° East 502 578 45,000  Level FlightAware Transoceanic
Fri 09:11:00 AM 56.0280 -20.7479 94° East 502 578 45,000  Level FlightAware Transoceanic
Fri 09:12:00 AM 56.0192 -20.4985 94° East 502 578 45,000  Level FlightAware Transoceanic
Fri 09:13:00 AM 56.0098 -20.2492 94° East 502 578 45,000 -341 Level FlightAware Transoceanic
Fri 09:14:00 AM 56.0002 -20.0041 94° East  Level FlightAware Approximate
Fri 09:15:00 AM 55.9903 -19.7590 94° East  Level FlightAware Approximate
Fri 09:16:00 AM 55.9904 -19.7631 94° East  Level FlightAware Approximate
Fri 09:17:00 AM 55.9800 -19.5182 94° East  Level FlightAware Approximate
Fri 09:18:00 AM 55.9691 -19.2734 94° East  Level FlightAware Approximate
Fri 09:19:00 AM 55.9577 -19.0288 95° East  Level FlightAware Approximate
Fri 09:20:00 AM 55.9459 -18.7843 95° East  Level FlightAware Approximate
Fri 09:21:00 AM 55.9335 -18.5400 95° East  Level FlightAware Approximate
Fri 09:22:00 AM 55.9207 -18.2958 95° East  Level FlightAware Approximate
Fri 09:23:00 AM 55.9074 -18.0518 95° East  Level FlightAware Approximate
Fri 09:24:00 AM 55.8936 -17.8080 96° East  Level FlightAware Approximate
Fri 09:25:00 AM 55.8793 -17.5643 96° East  Level FlightAware Approximate
Fri 09:26:00 AM 55.8646 -17.3208 96° East  Level FlightAware Approximate
Fri 09:27:00 AM 55.8493 -17.0775 96° East  Level FlightAware Approximate
Fri 09:28:00 AM 55.8336 -16.8344 96° East  Level FlightAware Approximate
Fri 09:29:00 AM 55.8174 -16.5915 97° East  Level FlightAware Approximate
Fri 09:30:00 AM 55.8008 -16.3488 97° East  Level FlightAware Approximate
Fri 09:31:00 AM 55.7836 -16.1064 97° East  Level FlightAware Approximate
Fri 09:32:00 AM 55.7660 -15.8641 97° East  Level FlightAware Approximate
Fri 09:33:00 AM 55.7479 -15.6221 98° East  Level FlightAware Approximate
Fri 09:34:00 AM 55.7292 -15.3803 98° East  Level FlightAware Approximate
Fri 09:35:00 AM 55.7100 -15.1387 98° East  Level FlightAware Approximate
Fri 09:36:00 AM 55.6904 -14.8974 98° East  Level FlightAware Approximate
Fri 09:37:00 AM 55.6702 -14.6563 98° East  Level FlightAware Approximate
Fri 09:38:00 AM 55.6497 -14.4155 99° East  Level FlightAware Approximate
Fri 09:39:00 AM 55.6286 -14.1749 99° East  Level FlightAware Approximate
Fri 09:40:00 AM 55.6071 -13.9347 99° East  Level FlightAware Approximate
Fri 09:41:00 AM 55.5851 -13.6946 99° East  Level FlightAware Approximate
Fri 09:42:00 AM 55.5626 -13.4549 99° East  Level FlightAware Approximate
Fri 09:43:00 AM 55.5397 -13.2154 100° East  Level FlightAware Approximate
Fri 09:44:00 AM 55.5163 -12.9762 100° East  Level FlightAware Approximate
Fri 09:45:00 AM 55.4924 -12.7373 100° East  Level FlightAware Approximate
Fri 09:46:00 AM 55.4681 -12.4986 100° East  Level FlightAware Approximate
Fri 09:47:00 AM 55.4433 -12.2603 100° East  Level FlightAware Approximate
Fri 09:48:00 AM 55.4180 -12.0223 100° East  Level FlightAware Approximate
Fri 09:49:00 AM 55.3923 -11.7846 101° East  Level FlightAware Approximate
Fri 09:50:00 AM 55.3661 -11.5472 101° East  Level FlightAware Approximate
Fri 09:51:00 AM 55.3395 -11.3101 101° East  Level FlightAware Approximate
Fri 09:52:00 AM 55.3124 -11.0733 101° East  Level FlightAware Approximate
Fri 09:53:00 AM 55.2848 -10.8369 101° East  Level FlightAware Approximate
Fri 09:54:00 AM 55.2568 -10.6007 102° East  Level FlightAware Approximate
Fri 09:55:00 AM 55.2284 -10.3650 102° East  Level FlightAware Approximate
Fri 09:56:00 AM 55.1995 -10.1295 102° East  Level FlightAware Approximate
Fri 09:56:50 AM 54.9585 -8.9777 102° East 517 595 29,700  Level FlightAware UK
Fri 09:57:20 AM 54.9505 -8.8489 96° East 521 600 28,500 -2,500 Descending FlightAware UK
Fri 09:57:50 AM 54.9425 -8.7198 96° East 517 595 27,200 -2,700 Descending FlightAware UK
Fri 09:58:20 AM 54.9350 -8.5956 96° East 486 559 25,800 -2,900 Descending FlightAware UK
Fri 09:58:50 AM 54.9275 -8.4785 96° East 464 534 24,300 -3,100 Descending FlightAware UK
Fri 09:59:20 AM 54.9203 -8.3672 96° East 438 504 22,700 -3,100 Descending FlightAware UK
Fri 09:59:50 AM 54.9135 -8.2650 97° East 402 463 21,200 -3,000 Descending FlightAware UK
Fri 10:00:20 AM 54.9075 -8.1707 96° East 370 426 19,700 -3,000 Descending FlightAware UK
Fri 10:00:50 AM 54.9017 -8.0827 96° East 348 400 18,200 -3,000 Descending FlightAware UK
Fri 10:01:20 AM 54.8957 -8.0003 97° East 324 373 16,700 -3,000 Descending FlightAware UK
Fri 10:01:50 AM 54.8906 -7.9234 97° East 302 348 15,200 -3,000 Descending FlightAware UK
Fri 10:02:20 AM 54.8856 -7.8496 97° East 292 336 13,700 -3,100 Descending FlightAware UK
Fri 10:02:50 AM 54.8804 -7.7771 97° East 286 329 12,100 -3,200 Descending FlightAware UK
Fri 10:03:20 AM 54.8756 -7.7060 97° East 278 320 10,500 -3,182 Descending FlightAware UK
Fri 10:03:56 AM 54.8706 -7.6205 96° East 276 318 8,600 -2,833 Descending FlightAware UK
Fri 10:04:32 AM 54.8639 -7.5375 98° East 268 308 7,100 -1,143 Descending FlightAware UK
Fri 10:05:20 AM 54.8553 -7.4338 98° East 252 290 7,000 -141 Descending FlightAware UK
Fri 10:05:57 AM 54.8504 -7.3579 96° East 244 281 6,900 -90 Descending FlightAware UK
Fri 10:06:27 AM 54.8535 -7.2983 85° East 232 267 6,900 -417 Level FlightAware UK
Fri 10:07:09 AM 54.8783 -7.2324 57° Northeast 206 237 6,400 -923 Descending FlightAware UK
Fri 10:07:45 AM 54.9082 -7.1983 33° Northeast 214 246 5,700 -1,231 Descending FlightAware UK
Fri 10:08:27 AM 54.9518 -7.1810 13° North 230 265 4,800 -1,308 Descending FlightAware UK
Fri 10:09:03 AM 54.9908 -7.1638 14° North 224 258 4,000 -1,333 Descending FlightAware UK
Fri 10:09:39 AM 55.0280 -7.1500 12° North 218 251 3,200 -667 Descending FlightAware UK
Fri 10:10:15 AM 55.0644 -7.1367 12° North 212 244 3,200  Level FlightAware UK
Fri 10:10:51 AM 55.0938 -7.1556 340° North 198 228 3,200 -909 Level FlightAware UK
Fri 10:11:21 AM 55.0891 -7.1967 259° West 186 214 2,200 -1,273 Descending FlightAware UK
Fri 10:11:57 AM 55.0765 -7.2315 238° Southwest 1 1 1,800 -583 Descending FlightAware UK
Fri 10:12:33 AM 55.0625 -7.2638 233° Southwest 1 1 1,500 -615 Descending FlightAware UK
Fri 10:13:15 AM 55.0391 -7.2675 185° South 1 1 1,000 -714 Descending FlightAware UK
Fri 10:15:00 AM 55.0428 -7.1611 87° East  Level Estimated
Fri 10:22:00 AM 55.0428 -7.1611 196° South  Level Estimated
Fri 10:23:00 AM 55.0428 -7.1611 196° South  Level Estimated
Fri 10:24:00 AM 55.0428 -7.1611 196° South  Level Estimated
Fri 10:25:00 AM 55.0428 -7.1611 196° South  Level Estimated
Fri 10:26:00 AM 55.0428 -7.1611 196° South  Level Estimated
Fri 10:27:00 AM 55.0428 -7.1611 196° South  Level Estimated
Fri 10:28:00 AM 55.0428 -7.1611 196° South  Level Estimated
Fri 10:29:00 AM 55.0428 -7.1611 196° South  Level Estimated
Fri 10:30:00 AM 55.0428 -7.1611 196° South  Level Estimated
Fri 10:31:00 AM 55.0428 -7.1611 196° South  Level Estimated
Fri 10:32:00 AM 55.0428 -7.1611 196° South  Level Estimated
Fri 10:33:00 AM 55.0428 -7.1611 196° South  Level Estimated
Fri 10:34:00 AM 55.0428 -7.1611 196° South  Level Estimated
Fri 10:35:00 AM 55.0428 -7.1611 196° South  Level Estimated
Fri 10:36:00 AM 55.0428 -7.1611 196° South  Level Estimated
Fri 10:37:00 AM 55.0428 -7.1611 196° South  Level Estimated

Login

Don't have an account? Register now (free) for customized features, flight alerts, and more!